createdAt,value
2018-05-17T00:00:51.176Z,7.30
2018-05-17T00:03:18.727Z,7.83
2018-05-17T00:05:46.996Z,7.43
2018-05-17T00:08:14.988Z,6.83
2018-05-17T00:10:42.559Z,6.80
2018-05-17T00:13:10.418Z,8.50
2018-05-17T00:15:53.108Z,6.77
2018-05-17T00:18:21.139Z,6.03
2018-05-17T00:20:48.712Z,6.97
2018-05-17T00:23:16.257Z,7.97
2018-05-17T00:25:43.829Z,6.87
2018-05-17T00:28:11.703Z,9.67
2018-05-17T00:30:39.247Z,7.17
2018-05-17T00:33:07.627Z,7.53
2018-05-17T00:35:35.167Z,9.77
2018-05-17T00:38:03.320Z,8.43
2018-05-17T00:40:31.494Z,6.73
2018-05-17T00:42:59.963Z,8.00
2018-05-17T00:45:27.500Z,6.90
2018-05-17T00:47:55.579Z,7.77
2018-05-17T00:50:24.509Z,10.10
2018-05-17T00:53:03.703Z,7.13
2018-05-17T00:55:31.276Z,9.10
2018-05-17T00:57:59.498Z,7.97
2018-05-17T01:00:27.043Z,10.37
2018-05-17T01:02:54.589Z,8.50
2018-05-17T01:05:23.040Z,9.53
2018-05-17T01:07:51.134Z,8.60
2018-05-17T01:10:18.670Z,10.27
2018-05-17T01:12:46.199Z,9.67
2018-05-17T01:15:14.213Z,9.50
2018-05-17T01:17:42.447Z,9.20
2018-05-17T01:20:10.652Z,12.17
2018-05-17T01:22:38.179Z,12.70
2018-05-17T01:25:05.766Z,8.63
2018-05-17T01:27:33.296Z,8.60
2018-05-17T01:30:00.824Z,8.83
2018-05-17T01:32:28.466Z,7.90
2018-05-17T01:34:56.764Z,8.70
2018-05-17T01:37:36.073Z,8.53
2018-05-17T01:40:04.444Z,8.03
2018-05-17T01:42:31.987Z,7.93
2018-05-17T01:44:59.532Z,8.90
2018-05-17T01:47:27.583Z,9.87
2018-05-17T01:49:55.586Z,8.57
2018-05-17T01:52:23.115Z,8.43
2018-05-17T01:54:50.656Z,9.47
2018-05-17T01:57:18.223Z,7.80
2018-05-17T01:59:46.521Z,9.33
2018-05-17T02:02:14.114Z,9.97
2018-05-17T02:04:42.490Z,8.63
2018-05-17T02:07:11.140Z,10.50
2018-05-17T02:09:38.734Z,8.97
2018-05-17T02:12:06.306Z,9.73
2018-05-17T02:14:34.295Z,13.83
2018-05-17T02:17:01.826Z,8.00
2018-05-17T02:19:29.918Z,9.20
2018-05-17T02:21:57.452Z,8.93
2018-05-17T02:24:25.036Z,8.17
2018-05-17T02:26:52.602Z,10.47
2018-05-17T02:29:20.148Z,11.93
2018-05-17T02:31:47.689Z,10.40
2018-05-17T02:34:15.975Z,9.90
2018-05-17T02:36:44.274Z,8.97
2018-05-17T02:39:12.241Z,11.07
2018-05-17T02:41:40.816Z,10.50
2018-05-17T02:44:08.355Z,10.77
2018-05-17T02:46:35.889Z,12.23
2018-05-17T02:49:03.967Z,10.53
2018-05-17T02:51:31.428Z,10.63
2018-05-17T02:53:58.989Z,6.83
2018-05-17T02:56:27.473Z,10.37
2018-05-17T02:58:55.818Z,11.77
2018-05-17T03:01:23.351Z,6.83
2018-05-17T03:03:50.905Z,6.93
2018-05-17T03:06:19.150Z,9.33
2018-05-17T03:08:47.244Z,8.30
2018-05-17T03:11:14.783Z,6.33
2018-05-17T03:13:42.321Z,7.80
2018-05-17T03:16:10.726Z,5.90
2018-05-17T03:18:38.760Z,6.77
2018-05-17T03:21:06.304Z,7.00
2018-05-17T03:23:33.839Z,8.47
2018-05-17T03:26:02.096Z,5.20
2018-05-17T03:28:29.628Z,7.27
2018-05-17T03:30:57.179Z,5.77
2018-05-17T03:33:26.227Z,5.70
2018-05-17T03:35:54.389Z,7.33
2018-05-17T03:38:21.954Z,6.53
2018-05-17T03:40:50.081Z,7.13
2018-05-17T03:43:17.630Z,7.80
2018-05-17T03:45:46.060Z,7.93
2018-05-17T03:48:14.349Z,5.63
2018-05-17T03:50:41.939Z,6.53
2018-05-17T03:53:09.648Z,9.53
2018-05-17T03:58:35.798Z,6.03
2018-05-17T04:01:15.001Z,5.80
2018-05-17T04:03:54.314Z,7.10
2018-05-17T04:06:35.085Z,4.57
2018-05-17T04:09:03.192Z,5.70
2018-05-17T04:11:31.115Z,7.07
2018-05-17T04:13:59.588Z,10.03
2018-05-17T04:16:27.063Z,7.07
2018-05-17T04:18:55.219Z,8.73
2018-05-17T04:21:22.791Z,7.50
2018-05-17T04:23:50.323Z,6.07
2018-05-17T04:26:18.538Z,4.97
2018-05-17T04:28:46.068Z,4.53
2018-05-17T04:31:13.728Z,5.80
2018-05-17T04:33:42.010Z,5.13
2018-05-17T04:36:10.543Z,6.80
2018-05-17T04:38:38.076Z,8.43
2018-05-17T04:41:05.608Z,3.00
2018-05-17T04:43:33.935Z,4.80
2018-05-17T04:46:01.484Z,5.60
2018-05-17T04:48:30.318Z,6.33
2018-05-17T04:50:57.843Z,4.93
2018-05-17T04:53:25.391Z,4.83
2018-05-17T04:55:52.969Z,5.43
2018-05-17T04:58:21.117Z,3.83
2018-05-17T05:00:48.647Z,3.13
2018-05-17T05:03:16.500Z,5.63
2018-05-17T05:05:44.654Z,3.93
2018-05-17T05:08:12.913Z,5.97
2018-05-17T05:10:40.581Z,3.97
2018-05-17T05:13:08.136Z,5.90
2018-05-17T05:15:36.086Z,4.97
2018-05-17T05:18:04.447Z,3.53
2018-05-17T05:20:31.989Z,3.33
2018-05-17T05:22:59.529Z,5.97
2018-05-17T05:25:27.129Z,4.60
2018-05-17T05:27:55.190Z,5.23
2018-05-17T05:30:23.286Z,4.60
2018-05-17T05:32:50.831Z,3.23
2018-05-17T05:35:19.056Z,6.60
2018-05-17T05:37:47.191Z,6.40
2018-05-17T05:40:15.554Z,3.63
2018-05-17T05:42:43.090Z,3.70
2018-05-17T05:45:10.732Z,2.30
2018-05-17T05:47:38.316Z,3.80
2018-05-17T05:50:06.383Z,3.50
2018-05-17T05:52:33.943Z,2.67
2018-05-17T05:55:01.486Z,4.73
2018-05-17T05:57:29.783Z,3.93
2018-05-17T05:59:57.316Z,4.00
2018-05-17T06:02:25.005Z,4.40
2018-05-17T06:04:53.651Z,5.27
2018-05-17T06:07:22.162Z,4.37
2018-05-17T06:09:50.268Z,4.13
2018-05-17T06:12:17.822Z,3.50
2018-05-17T06:14:46.081Z,3.10
2018-05-17T06:17:13.617Z,4.77
2018-05-17T06:19:41.907Z,2.67
2018-05-17T06:22:09.544Z,3.43
2018-05-17T06:24:37.081Z,4.57
2018-05-17T06:27:05.193Z,4.40
2018-05-17T06:29:33.303Z,7.27
2018-05-17T06:32:00.852Z,5.00
2018-05-17T06:34:29.362Z,3.50
2018-05-17T06:36:57.747Z,5.43
2018-05-17T06:39:25.287Z,4.97
2018-05-17T06:41:52.818Z,5.13
2018-05-17T06:44:20.383Z,6.97
2018-05-17T06:46:47.923Z,4.70
2018-05-17T06:49:16.166Z,3.80
2018-05-17T06:51:43.694Z,7.77
2018-05-17T06:54:11.809Z,5.37
2018-05-17T06:56:39.652Z,4.47
2018-05-17T06:59:07.812Z,4.20
2018-05-17T07:01:35.352Z,3.83
2018-05-17T07:04:02.884Z,5.27
2018-05-17T07:06:31.156Z,3.50
2018-05-17T07:08:59.240Z,4.03
2018-05-17T07:11:27.426Z,5.50
2018-05-17T07:13:54.971Z,5.13
2018-05-17T07:16:23.030Z,3.33
2018-05-17T07:18:51.005Z,3.70
2018-05-17T07:21:18.585Z,5.70
2018-05-17T07:23:46.126Z,3.93
2018-05-17T07:26:14.393Z,5.10
2018-05-17T07:28:42.212Z,3.87
2018-05-17T07:31:09.974Z,3.20
2018-05-17T07:33:38.273Z,4.77
2018-05-17T07:36:07.368Z,4.03
2018-05-17T07:38:34.908Z,4.90
2018-05-17T07:41:02.455Z,2.53
2018-05-17T07:43:30.056Z,3.73
2018-05-17T07:45:57.580Z,4.57
2018-05-17T07:48:25.943Z,4.00
2018-05-17T07:50:53.475Z,4.40
2018-05-17T07:53:21.140Z,3.17
2018-05-17T07:55:48.707Z,4.57
2018-05-17T07:58:17.770Z,2.27
2018-05-17T08:00:45.304Z,5.43
2018-05-17T08:03:12.949Z,4.57
2018-05-17T08:05:41.365Z,6.97
2018-05-17T08:08:09.530Z,3.20
2018-05-17T08:10:37.071Z,3.13
2018-05-17T08:13:04.660Z,3.77
2018-05-17T08:15:32.760Z,4.40
2018-05-17T08:18:00.987Z,3.70
2018-05-17T08:20:28.514Z,4.97
2018-05-17T08:22:56.074Z,4.73
2018-05-17T08:25:24.229Z,5.50
2018-05-17T08:27:52.507Z,4.20
2018-05-17T08:30:20.058Z,5.30
2018-05-17T08:32:47.597Z,6.33
2018-05-17T08:35:15.609Z,4.27
2018-05-17T08:37:43.658Z,3.57
2018-05-17T08:40:11.547Z,4.33
2018-05-17T08:42:39.287Z,4.67
2018-05-17T08:45:07.009Z,7.73
2018-05-17T08:47:34.546Z,4.13
2018-05-17T08:50:02.839Z,5.77
2018-05-17T08:52:30.384Z,3.57
2018-05-17T08:54:57.923Z,4.50
2018-05-17T08:57:26.519Z,2.83
2018-05-17T08:59:54.902Z,3.43
2018-05-17T09:02:22.443Z,7.50
2018-05-17T09:04:51.114Z,4.87
2018-05-17T09:07:19.130Z,6.57
2018-05-17T09:09:46.673Z,5.10
2018-05-17T09:12:14.203Z,3.97
2018-05-17T09:14:42.627Z,3.97
2018-05-17T09:17:11.624Z,5.73
2018-05-17T09:19:40.715Z,4.80
2018-05-17T09:22:08.707Z,4.20
2018-05-17T09:24:36.266Z,6.87
2018-05-17T09:27:04.543Z,5.00
2018-05-17T09:29:32.130Z,4.03
2018-05-17T09:31:59.805Z,6.77
2018-05-17T09:34:27.862Z,6.07
2018-05-17T09:36:55.987Z,3.20
2018-05-17T09:39:23.530Z,8.50
2018-05-17T09:41:51.058Z,4.73
2018-05-17T09:44:18.615Z,5.10
2018-05-17T09:46:46.180Z,4.20
2018-05-17T09:49:14.658Z,4.63
2018-05-17T09:51:42.231Z,3.37
2018-05-17T09:54:09.833Z,5.83
2018-05-17T09:56:37.418Z,5.60
2018-05-17T09:59:05.451Z,2.87
2018-05-17T10:01:32.975Z,4.87
2018-05-17T10:04:00.518Z,7.63
2018-05-17T10:06:28.525Z,8.70
2018-05-17T10:08:56.599Z,4.43
2018-05-17T10:11:24.134Z,3.97
2018-05-17T10:13:51.673Z,7.00
2018-05-17T10:16:19.691Z,4.97
2018-05-17T10:18:47.883Z,4.93
2018-05-17T10:21:15.424Z,5.43
2018-05-17T10:23:42.966Z,4.43
2018-05-17T10:26:11.543Z,3.73
2018-05-17T10:28:39.098Z,3.97
2018-05-17T10:31:06.949Z,4.47
2018-05-17T10:33:35.117Z,3.47
2018-05-17T10:36:03.363Z,5.17
2018-05-17T10:38:30.919Z,3.60
2018-05-17T10:40:58.459Z,4.27
2018-05-17T10:43:26.039Z,5.07
2018-05-17T10:45:54.190Z,6.60
2018-05-17T10:48:22.603Z,7.27
2018-05-17T10:50:50.155Z,5.30
2018-05-17T10:53:17.683Z,6.60
2018-05-17T10:55:45.256Z,7.50
2018-05-17T10:58:13.638Z,4.80
2018-05-17T11:00:42.551Z,5.40
2018-05-17T11:03:10.370Z,4.13
2018-05-17T11:05:38.598Z,4.57
2018-05-17T11:08:07.066Z,4.00
2018-05-17T11:10:34.653Z,3.33
2018-05-17T11:13:02.179Z,3.23
2018-05-17T11:15:30.597Z,5.23
2018-05-17T11:17:58.669Z,11.03
2018-05-17T11:20:26.226Z,4.27
2018-05-17T11:22:53.917Z,7.60
2018-05-17T11:25:28.524Z,5.87
2018-05-17T11:27:58.796Z,7.43
2018-05-17T11:30:26.372Z,6.40
2018-05-17T11:32:54.537Z,5.90
2018-05-17T11:35:22.709Z,4.70
2018-05-17T11:37:50.951Z,5.83
2018-05-17T11:40:18.501Z,8.07
2018-05-17T11:42:46.069Z,6.10
2018-05-17T11:45:13.679Z,6.77
2018-05-17T11:47:42.336Z,4.53
2018-05-17T11:50:11.061Z,6.27
2018-05-17T11:52:38.736Z,7.27
2018-05-17T11:55:06.284Z,7.67
2018-05-17T11:57:34.495Z,5.57
2018-05-17T12:00:02.071Z,5.93
2018-05-17T12:02:29.770Z,3.23
2018-05-17T12:04:58.223Z,4.90
2018-05-17T12:07:26.327Z,7.10
2018-05-17T12:09:53.843Z,3.93
2018-05-17T12:12:21.399Z,5.57
2018-05-17T12:14:49.579Z,6.73
2018-05-17T12:17:17.111Z,5.53
2018-05-17T12:19:45.296Z,5.27
2018-05-17T12:22:12.827Z,6.73
2018-05-17T12:24:40.839Z,5.23
2018-05-17T12:27:09.088Z,6.20
2018-05-17T12:29:37.471Z,4.30
2018-05-17T12:32:05.043Z,5.80
2018-05-17T12:34:33.446Z,4.60
2018-05-17T12:37:01.682Z,11.10
2018-05-17T12:39:29.280Z,3.57
2018-05-17T12:41:56.832Z,5.60
2018-05-17T12:44:24.398Z,7.50
2018-05-17T12:46:51.951Z,5.40
2018-05-17T12:49:20.479Z,5.67
2018-05-17T12:51:48.812Z,6.73
2018-05-17T12:54:16.345Z,6.33
2018-05-17T12:56:43.894Z,7.57
2018-05-17T12:59:12.055Z,7.07
2018-05-17T13:01:39.677Z,6.27
2018-05-17T13:04:07.805Z,6.60
2018-05-17T13:06:36.165Z,8.03
2018-05-17T13:09:04.425Z,8.67
2018-05-17T13:11:32.558Z,7.67
2018-05-17T13:14:00.947Z,4.87
2018-05-17T13:16:28.493Z,7.30
2018-05-17T13:18:56.695Z,5.87
2018-05-17T13:21:24.229Z,4.03
2018-05-17T13:23:52.802Z,5.37
2018-05-17T13:26:21.081Z,11.13
2018-05-17T13:28:48.608Z,5.13
2018-05-17T13:31:16.147Z,10.17
2018-05-17T13:33:44.387Z,7.23
2018-05-17T13:36:12.853Z,5.87
2018-05-17T13:38:40.638Z,5.93
2018-05-17T13:41:08.865Z,9.70
2018-05-17T13:43:36.418Z,5.50
2018-05-17T13:46:03.971Z,5.97
2018-05-17T13:48:32.338Z,5.67
2018-05-17T13:50:59.891Z,8.50
2018-05-17T13:53:27.425Z,7.03
2018-05-17T13:55:55.504Z,7.83
2018-05-17T13:58:23.063Z,12.97
2018-05-17T14:00:50.916Z,7.80
2018-05-17T14:03:19.164Z,6.43
2018-05-17T14:05:47.423Z,4.17
2018-05-17T14:08:15.329Z,5.10
2018-05-17T14:10:45.147Z,4.33
2018-05-17T14:13:12.673Z,4.80
2018-05-17T14:15:41.187Z,6.30
2018-05-17T14:18:09.378Z,4.47
2018-05-17T14:20:37.343Z,4.67
2018-05-17T14:23:04.906Z,4.63
2018-05-17T14:25:33.396Z,6.03
2018-05-17T14:28:01.755Z,4.50
2018-05-17T14:30:29.286Z,3.90
2018-05-17T14:32:56.828Z,8.00
2018-05-17T14:35:24.822Z,6.77
2018-05-17T14:37:52.845Z,7.33
2018-05-17T14:40:20.375Z,5.87
2018-05-17T14:42:48.708Z,4.63
2018-05-17T14:45:16.282Z,5.93
2018-05-17T14:47:43.850Z,7.10
2018-05-17T14:50:12.207Z,4.83
2018-05-17T14:52:40.109Z,5.63
2018-05-17T14:55:07.673Z,4.83
2018-05-17T14:57:35.259Z,3.33
2018-05-17T15:00:03.969Z,6.97
2018-05-17T15:02:31.530Z,5.83
2018-05-17T15:04:59.608Z,9.83
2018-05-17T15:07:27.976Z,5.50
2018-05-17T15:09:55.516Z,6.40
2018-05-17T15:12:23.051Z,4.20
2018-05-17T15:14:51.041Z,6.20
2018-05-17T15:17:18.985Z,8.53
2018-05-17T15:19:47.663Z,6.00
2018-05-17T15:22:15.214Z,4.60
2018-05-17T15:24:42.819Z,8.23
2018-05-17T15:27:11.379Z,4.93
2018-05-17T15:29:39.726Z,5.77
2018-05-17T15:32:07.260Z,6.20
2018-05-17T15:34:35.463Z,3.27
2018-05-17T15:37:03.636Z,5.90
2018-05-17T15:39:31.173Z,5.43
2018-05-17T15:41:58.726Z,3.87
2018-05-17T15:44:26.307Z,5.63
2018-05-17T15:46:54.726Z,5.47
2018-05-17T15:49:22.771Z,4.80
2018-05-17T15:51:50.451Z,4.07
2018-05-17T15:54:18.003Z,5.37
2018-05-17T15:56:45.602Z,5.30
2018-05-17T15:59:13.843Z,5.57
2018-05-17T16:01:42.115Z,3.97
2018-05-17T16:04:11.557Z,3.93
2018-05-17T16:06:40.477Z,4.83
2018-05-17T16:09:07.990Z,4.07
2018-05-17T16:11:35.531Z,4.43
2018-05-17T16:14:03.796Z,6.40
2018-05-17T16:16:31.333Z,3.60
2018-05-17T16:18:59.450Z,9.20
2018-05-17T16:21:27.028Z,4.33
2018-05-17T16:23:54.733Z,3.57
2018-05-17T16:26:23.050Z,4.57
2018-05-17T16:28:51.259Z,5.07
2018-05-17T16:31:18.804Z,3.17
2018-05-17T16:33:46.875Z,5.30
2018-05-17T16:36:14.990Z,2.73
2018-05-17T16:38:42.551Z,6.00
2018-05-17T16:41:10.884Z,3.53
2018-05-17T16:43:38.468Z,7.67
2018-05-17T16:46:06.056Z,3.47
2018-05-17T16:48:34.187Z,6.93
2018-05-17T16:51:02.174Z,6.13
2018-05-17T16:53:29.733Z,4.17
2018-05-17T16:55:57.553Z,5.83
2018-05-17T16:58:25.198Z,4.17
2018-05-17T17:00:52.902Z,5.13
2018-05-17T17:03:21.218Z,4.27
2018-05-17T17:05:49.663Z,4.37
2018-05-17T17:08:17.526Z,7.50
2018-05-17T17:10:45.060Z,6.20
2018-05-17T17:13:12.595Z,6.13
2018-05-17T17:15:41.250Z,3.90
2018-05-17T17:18:09.483Z,3.83
2018-05-17T17:20:37.408Z,3.43
2018-05-17T17:23:05.621Z,8.80
2018-05-17T17:25:33.660Z,5.97
2018-05-17T17:28:01.264Z,4.40
2018-05-17T17:30:28.810Z,7.80
2018-05-17T17:32:56.468Z,3.80
2018-05-17T17:35:24.705Z,4.77
2018-05-17T17:37:52.726Z,2.97
2018-05-17T17:40:20.276Z,2.63
2018-05-17T17:42:47.828Z,5.20
2018-05-17T17:45:15.954Z,6.03
2018-05-17T17:47:43.495Z,4.93
2018-05-17T17:50:12.055Z,4.80
2018-05-17T17:52:40.857Z,5.87
2018-05-17T17:55:08.401Z,2.87
2018-05-17T17:57:35.950Z,5.77
2018-05-17T18:00:04.070Z,4.87
2018-05-17T18:02:31.629Z,4.77
2018-05-17T18:04:59.741Z,3.90
2018-05-17T18:07:28.047Z,3.07
2018-05-17T18:09:56.215Z,3.73
2018-05-17T18:12:23.782Z,6.37
2018-05-17T18:14:52.048Z,6.10
2018-05-17T18:17:21.232Z,5.07
2018-05-17T18:19:49.245Z,4.00
2018-05-17T18:22:16.782Z,3.53
2018-05-17T18:24:45.373Z,3.63
2018-05-17T18:27:13.641Z,5.00
2018-05-17T18:29:41.500Z,4.90
2018-05-17T18:32:09.051Z,4.73
2018-05-17T18:34:37.173Z,5.23
2018-05-17T18:37:05.407Z,3.57
2018-05-17T18:39:32.969Z,10.20
2018-05-17T18:42:01.150Z,4.43
2018-05-17T18:44:28.686Z,4.87
2018-05-17T18:46:56.207Z,4.70
2018-05-17T18:49:24.820Z,3.20
2018-05-17T18:51:52.370Z,3.97
2018-05-17T18:54:20.713Z,3.50
2018-05-17T18:56:49.018Z,4.47
2018-05-17T18:59:16.678Z,3.67
2018-05-17T19:01:44.232Z,6.67
2018-05-17T19:04:12.301Z,3.73
2018-05-17T19:06:40.685Z,5.20
2018-05-17T19:09:08.374Z,4.93
2018-05-17T19:11:36.704Z,5.30
2018-05-17T19:14:04.944Z,6.33
2018-05-17T19:16:32.452Z,4.13
2018-05-17T19:19:00.531Z,3.53
2018-05-17T19:21:28.083Z,3.07
2018-05-17T19:23:55.645Z,4.37
2018-05-17T19:26:23.797Z,8.17
2018-05-17T19:28:51.753Z,3.47
2018-05-17T19:31:19.697Z,4.47
2018-05-17T19:33:48.073Z,4.23
2018-05-17T19:36:16.332Z,4.00
2018-05-17T19:38:43.926Z,5.53
2018-05-17T19:41:11.693Z,6.33
2018-05-17T19:43:42.186Z,3.87
2018-05-17T19:46:10.971Z,4.03
2018-05-17T19:48:39.200Z,3.77
2018-05-17T19:51:06.767Z,2.93
2018-05-17T19:53:34.955Z,2.10
2018-05-17T19:56:03.307Z,4.37
2018-05-17T19:58:30.835Z,4.67
2018-05-17T20:00:59.016Z,3.80
2018-05-17T20:03:27.029Z,3.00
2018-05-17T20:05:56.046Z,3.87
2018-05-17T20:08:24.152Z,4.93
2018-05-17T20:10:51.694Z,3.67
2018-05-17T20:13:19.238Z,3.40
2018-05-17T20:15:47.156Z,2.37
2018-05-17T20:18:14.689Z,3.10
2018-05-17T20:20:42.280Z,2.60
2018-05-17T20:23:11.139Z,4.57
2018-05-17T20:25:39.815Z,2.87
2018-05-17T20:28:07.351Z,3.03
2018-05-17T20:30:35.968Z,3.10
2018-05-17T20:33:03.528Z,2.23
2018-05-17T20:35:31.988Z,4.20
2018-05-17T20:38:00.089Z,5.20
2018-05-17T20:40:27.639Z,2.97
2018-05-17T20:42:55.187Z,3.27
2018-05-17T20:45:22.813Z,5.27
2018-05-17T20:47:51.091Z,2.63
2018-05-17T20:50:19.331Z,4.60
2018-05-17T20:52:47.580Z,2.77
2018-05-17T20:55:15.123Z,4.13
2018-05-17T20:57:42.734Z,2.40
2018-05-17T21:00:10.955Z,2.97
2018-05-17T21:02:39.163Z,2.77
2018-05-17T21:05:07.244Z,1.63
2018-05-17T21:07:35.678Z,4.33
2018-05-17T21:10:03.229Z,3.83
2018-05-17T21:12:30.783Z,2.13
2018-05-17T21:14:58.839Z,2.30
2018-05-17T21:17:26.367Z,2.80
2018-05-17T21:19:54.498Z,6.53
2018-05-17T21:22:22.865Z,2.83
2018-05-17T21:24:50.397Z,2.23
2018-05-17T21:27:18.659Z,4.63
2018-05-17T21:29:46.806Z,2.80
2018-05-17T21:32:14.346Z,2.33
2018-05-17T21:34:42.907Z,2.67
2018-05-17T21:37:11.115Z,2.10
2018-05-17T21:39:38.753Z,1.70
2018-05-17T21:42:06.279Z,3.57
2018-05-17T21:44:33.834Z,2.53
2018-05-17T21:47:01.372Z,2.03
2018-05-17T21:49:29.515Z,4.13
2018-05-17T21:51:57.673Z,3.70
2018-05-17T21:54:25.782Z,2.17
2018-05-17T21:56:53.315Z,3.37
2018-05-17T21:59:21.317Z,3.27
2018-05-17T22:01:48.852Z,2.77
2018-05-17T22:04:16.799Z,3.73
2018-05-17T22:06:44.897Z,3.83
2018-05-17T22:09:12.449Z,2.43
2018-05-17T22:11:40.418Z,2.83
2018-05-17T22:14:08.788Z,3.43
2018-05-17T22:16:36.359Z,2.20
2018-05-17T22:19:03.920Z,3.57
2018-05-17T22:21:31.495Z,1.80
2018-05-17T22:23:59.735Z,4.53
2018-05-17T22:26:27.855Z,2.17
2018-05-17T22:28:55.896Z,3.73
2018-05-17T22:31:23.427Z,3.80
2018-05-17T22:33:51.589Z,5.13
2018-05-17T22:36:19.858Z,1.93
2018-05-17T22:38:47.835Z,2.10
2018-05-17T22:41:15.370Z,3.13
2018-05-17T22:43:42.961Z,3.77
2018-05-17T22:46:10.648Z,3.00
2018-05-17T22:48:39.044Z,2.70
2018-05-17T22:51:06.601Z,3.17
2018-05-17T22:53:34.154Z,2.57
2018-05-17T22:56:02.507Z,3.07
2018-05-17T22:58:33.780Z,1.57
2018-05-17T23:01:02.019Z,2.40
2018-05-17T23:03:30.079Z,2.13
2018-05-17T23:05:58.301Z,3.80
2018-05-17T23:08:26.509Z,3.23
2018-05-17T23:10:55.361Z,2.23
2018-05-17T23:13:22.891Z,2.63
2018-05-17T23:15:51.049Z,3.27
2018-05-17T23:18:18.587Z,4.43
2018-05-17T23:20:46.122Z,2.77
2018-05-17T23:23:14.424Z,2.47
2018-05-17T23:25:43.059Z,2.47
2018-05-17T23:28:11.385Z,1.97
2018-05-17T23:30:38.998Z,1.97
2018-05-17T23:33:06.533Z,1.90
2018-05-17T23:35:34.779Z,1.43
2018-05-17T23:38:02.769Z,1.83
2018-05-17T23:40:55.855Z,2.17
2018-05-17T23:43:24.225Z,2.70
2018-05-17T23:45:52.307Z,3.13
2018-05-17T23:48:20.363Z,3.97
2018-05-17T23:50:47.913Z,5.20
2018-05-17T23:53:15.435Z,1.70
2018-05-17T23:55:43.171Z,2.37
2018-05-17T23:58:10.726Z,2.43
